Time;durP1;ratioP1;P1;durP2;ratioP2;P2;SDS_P1;SDS_P2;PMS_P1;PMS_P2;Temp;Humidity;BMP_temperature;BMP_pressure;BME280_temperature;BME280_humidity;BME280_pressure;Samples;Min_cycle;Max_cycle;Signal;HPM_P1;HPM_P2
2023/10/25 00:00:00;;;;;;;0.00;0.00;;;;;;;;;;4979442;28;20198;-89
2023/10/25 00:02:25;;;;;;;0.27;0.27;;;;;;;;;;4957066;28;20775;-89
2023/10/25 00:04:54;;;;;;;0.53;0.53;;;;;;;;;;4974088;28;20182;-89
2023/10/25 00:07:19;;;;;;;0.27;0.27;;;;;;;;;;4957009;28;20687;-88
2023/10/25 00:09:45;;;;;;;0.00;0.00;;;;;;;;;;4956625;28;20217;-88
2023/10/25 00:12:10;;;;;;;5.10;0.83;;;;;;;;;;4956023;28;20190;-88
2023/10/25 00:14:35;;;;;;;4.00;1.20;;;;;;;;;;4956484;28;20240;-88
2023/10/25 00:17:00;;;;;;;0.83;0.83;;;;;;;;;;4957020;28;20637;-89
2023/10/25 00:19:26;;;;;;;1.03;1.03;;;;;;;;;;4974132;28;20202;-88
2023/10/25 00:21:51;;;;;;;1.17;0.87;;;;;;;;;;4956835;28;20185;-89
2023/10/25 00:24:16;;;;;;;3.73;1.40;;;;;;;;;;4956653;28;20273;-88
2023/10/25 00:26:41;;;;;;;0.37;0.37;;;;;;;;;;4956723;28;20182;-88
2023/10/25 00:29:06;;;;;;;0.97;0.97;;;;;;;;;;4956812;28;20201;-89
2023/10/25 00:31:31;;;;;;;0.50;0.50;;;;;;;;;;4973886;28;20209;-89
2023/10/25 00:33:57;;;;;;;0.63;0.63;;;;;;;;;;4956454;28;20232;-88
2023/10/25 00:36:22;;;;;;;2.20;0.40;;;;;;;;;;4956783;28;20184;-89
2023/10/25 00:38:47;;;;;;;0.37;0.37;;;;;;;;;;4956747;28;20208;-88
2023/10/25 00:41:12;;;;;;;0.40;0.40;;;;;;;;;;4974088;28;20184;-89
2023/10/25 00:43:38;;;;;;;0.47;0.30;;;;;;;;;;4973843;28;20182;-89
2023/10/25 00:46:06;;;;;;;1.63;1.53;;;;;;;;;;4974196;28;20178;-88
2023/10/25 00:48:33;;;;;;;0.37;0.37;;;;;;;;;;4956392;28;20186;-88
2023/10/25 00:50:58;;;;;;;7.83;1.13;;;;;;;;;;4973826;28;20791;-87
2023/10/25 00:53:25;;;;;;;0.30;0.30;;;;;;;;;;4973438;28;20240;-88
2023/10/25 00:55:54;;;;;;;2.30;1.67;;;;;;;;;;4973866;28;20294;-89
2023/10/25 00:58:20;;;;;;;1.83;0.50;;;;;;;;;;4973588;28;20182;-88
2023/10/25 01:00:46;;;;;;;0.47;0.47;;;;;;;;;;4973682;28;20184;-89
2023/10/25 01:03:11;;;;;;;4.40;0.77;;;;;;;;;;4973254;28;20217;-89
2023/10/25 01:05:37;;;;;;;1.17;0.83;;;;;;;;;;4956209;28;20189;-88
2023/10/25 01:08:02;;;;;;;1.13;1.13;;;;;;;;;;4956209;28;20901;-89
2023/10/25 01:10:28;;;;;;;1.17;1.07;;;;;;;;;;4955799;28;20252;-88
2023/10/25 01:12:53;;;;;;;1.20;1.17;;;;;;;;;;4956072;28;20192;-88
2023/10/25 01:15:27;;;;;;;0.90;0.90;;;;;;;;;;4973251;28;20189;-88
2023/10/25 01:17:53;;;;;;;0.87;0.87;;;;;;;;;;4949072;28;20232;-88
2023/10/25 01:20:21;;;;;;;1.80;1.10;;;;;;;;;;4955784;28;20207;-88
2023/10/25 01:22:47;;;;;;;1.00;1.00;;;;;;;;;;4955801;28;20189;-89
2023/10/25 01:25:12;;;;;;;0.70;0.70;;;;;;;;;;4955767;28;20181;-89
2023/10/25 01:27:37;;;;;;;3.13;1.27;;;;;;;;;;4973175;28;20248;-89
2023/10/25 01:30:03;;;;;;;0.83;0.83;;;;;;;;;;4973020;28;20212;-88
2023/10/25 01:32:28;;;;;;;0.70;0.63;;;;;;;;;;4972981;28;20169;-88
2023/10/25 01:34:53;;;;;;;1.80;0.83;;;;;;;;;;4955666;28;20641;-89
2023/10/25 01:37:18;;;;;;;0.67;0.67;;;;;;;;;;4955756;28;20173;-88
2023/10/25 01:39:43;;;;;;;21.73;1.73;;;;;;;;;;4972975;28;20694;-88
2023/10/25 01:42:09;;;;;;;0.73;0.73;;;;;;;;;;4972959;28;20170;-89
2023/10/25 01:44:34;;;;;;;1.10;0.80;;;;;;;;;;4955413;28;20177;-88
2023/10/25 01:46:59;;;;;;;0.67;0.67;;;;;;;;;;4955749;28;20560;-88
2023/10/25 01:49:24;;;;;;;1.50;1.40;;;;;;;;;;4955498;28;20221;-88
2023/10/25 01:51:49;;;;;;;1.07;1.07;;;;;;;;;;4955746;28;20174;-88
2023/10/25 01:54:14;;;;;;;1.03;1.03;;;;;;;;;;4955261;28;20559;-88
2023/10/25 01:56:40;;;;;;;3.13;2.13;;;;;;;;;;4955579;28;20217;-88
2023/10/25 01:59:05;;;;;;;0.50;0.50;;;;;;;;;;4955289;28;20197;-88
2023/10/25 02:01:30;;;;;;;0.53;0.53;;;;;;;;;;4955442;28;20266;-87
2023/10/25 02:03:55;;;;;;;0.90;0.80;;;;;;;;;;4972499;28;20178;-88
2023/10/25 02:06:21;;;;;;;0.70;0.70;;;;;;;;;;4955508;28;20336;-88
2023/10/25 02:08:46;;;;;;;2.00;1.80;;;;;;;;;;4972696;28;20261;-88
2023/10/25 02:11:12;;;;;;;1.33;0.90;;;;;;;;;;4974110;28;20205;-89
2023/10/25 02:13:37;;;;;;;0.60;0.60;;;;;;;;;;4976070;28;20550;-88
2023/10/25 02:16:13;;;;;;;2.80;1.13;;;;;;;;;;4959093;28;20216;-88
2023/10/25 02:18:38;;;;;;;0.70;0.70;;;;;;;;;;4958846;28;20704;-88
2023/10/25 02:21:03;;;;;;;0.30;0.30;;;;;;;;;;4959133;28;20262;-89
2023/10/25 02:23:28;;;;;;;0.50;0.50;;;;;;;;;;4975972;28;20200;-88
2023/10/25 02:25:54;;;;;;;4.17;1.53;;;;;;;;;;4958972;28;20269;-88
2023/10/25 02:28:19;;;;;;;1.13;1.03;;;;;;;;;;4976139;28;20180;-88
2023/10/25 02:30:44;;;;;;;0.47;0.47;;;;;;;;;;4958746;28;20257;-88
2023/10/25 02:33:09;;;;;;;0.60;0.60;;;;;;;;;;4959032;28;20663;-88
2023/10/25 02:35:34;;;;;;;0.77;0.73;;;;;;;;;;4975984;28;20641;-88
2023/10/25 02:37:59;;;;;;;0.70;0.67;;;;;;;;;;4975890;28;20257;-89
2023/10/25 02:40:25;;;;;;;0.90;0.87;;;;;;;;;;4975661;28;20680;-89
2023/10/25 02:42:50;;;;;;;0.87;0.87;;;;;;;;;;4975765;28;20186;-89
2023/10/25 02:45:15;;;;;;;0.47;0.47;;;;;;;;;;4958301;28;20208;-89
2023/10/25 02:47:40;;;;;;;0.33;0.33;;;;;;;;;;4975790;28;20667;-89
2023/10/25 02:50:06;;;;;;;1.67;1.13;;;;;;;;;;4958304;28;20213;-89
2023/10/25 02:52:31;;;;;;;0.30;0.30;;;;;;;;;;4958562;28;20173;-89
2023/10/25 02:54:56;;;;;;;0.50;0.50;;;;;;;;;;4958207;28;20185;-90
2023/10/25 02:57:21;;;;;;;0.97;0.97;;;;;;;;;;4975938;28;20178;-89
2023/10/25 02:59:47;;;;;;;0.43;0.43;;;;;;;;;;4958184;28;20210;-88
2023/10/25 03:02:13;;;;;;;0.63;0.63;;;;;;;;;;4957747;28;20614;-88
2023/10/25 03:04:38;;;;;;;0.10;0.10;;;;;;;;;;4957831;28;20237;-89
2023/10/25 03:07:03;;;;;;;0.00;0.00;;;;;;;;;;4975464;28;20178;-89
2023/10/25 03:09:28;;;;;;;0.00;0.00;;;;;;;;;;4975409;28;20665;-89
2023/10/25 03:11:54;;;;;;;0.00;0.00;;;;;;;;;;4958203;28;20178;-89
2023/10/25 03:14:19;;;;;;;0.10;0.07;;;;;;;;;;4957888;28;20200;-89
2023/10/25 03:16:44;;;;;;;0.00;0.00;;;;;;;;;;4958271;28;20223;-89
2023/10/25 03:19:09;;;;;;;0.00;0.00;;;;;;;;;;4957958;28;20228;-88
2023/10/25 03:21:34;;;;;;;0.00;0.00;;;;;;;;;;4957515;28;20660;-89
2023/10/25 03:24:00;;;;;;;0.00;0.00;;;;;;;;;;4974192;28;20257;-89
2023/10/25 03:26:25;;;;;;;0.00;0.00;;;;;;;;;;4975219;28;20192;-89
2023/10/25 03:28:50;;;;;;;0.00;0.00;;;;;;;;;;4957995;28;20288;-89
2023/10/25 03:31:15;;;;;;;0.00;0.00;;;;;;;;;;4975550;28;20719;-89
2023/10/25 03:33:41;;;;;;;0.00;0.00;;;;;;;;;;4957372;28;20174;-89
2023/10/25 03:36:06;;;;;;;0.10;0.10;;;;;;;;;;4974991;28;20232;-88
2023/10/25 03:38:33;;;;;;;0.00;0.00;;;;;;;;;;4957417;28;20182;-89
2023/10/25 03:40:59;;;;;;;0.20;0.10;;;;;;;;;;4957528;28;20186;-89
2023/10/25 03:43:24;;;;;;;0.27;0.27;;;;;;;;;;4974500;28;20177;-88
2023/10/25 03:45:50;;;;;;;0.97;0.97;;;;;;;;;;4957607;28;20185;-88
2023/10/25 03:48:15;;;;;;;0.27;0.27;;;;;;;;;;4957184;28;20182;-87
2023/10/25 03:50:40;;;;;;;0.23;0.23;;;;;;;;;;4974477;28;20205;-89
2023/10/25 03:53:05;;;;;;;0.10;0.10;;;;;;;;;;4974388;28;20174;-88
2023/10/25 03:55:30;;;;;;;0.20;0.20;;;;;;;;;;4957306;28;20668;-88
2023/10/25 03:57:56;;;;;;;0.40;0.40;;;;;;;;;;4974681;28;20644;-89
2023/10/25 04:00:21;;;;;;;0.27;0.27;;;;;;;;;;4974506;28;20194;-88
2023/10/25 04:02:46;;;;;;;0.10;0.10;;;;;;;;;;4974249;28;20186;-89
2023/10/25 04:05:11;;;;;;;1.43;0.70;;;;;;;;;;4956943;28;20555;-88
2023/10/25 04:07:36;;;;;;;2.90;0.93;;;;;;;;;;4957217;28;20200;-89
2023/10/25 04:10:01;;;;;;;0.20;0.20;;;;;;;;;;4957067;28;20205;-89
2023/10/25 04:12:27;;;;;;;1.50;0.20;;;;;;;;;;4974194;28;20767;-88
2023/10/25 04:14:52;;;;;;;1.33;1.23;;;;;;;;;;4956609;28;20178;-88
2023/10/25 04:17:18;;;;;;;0.43;0.40;;;;;;;;;;4974187;28;20637;-89
2023/10/25 04:19:43;;;;;;;1.50;1.40;;;;;;;;;;4956716;28;20232;-89
2023/10/25 04:22:08;;;;;;;5.27;1.00;;;;;;;;;;4956692;28;20269;-88
2023/10/25 04:24:33;;;;;;;0.80;0.80;;;;;;;;;;4973666;28;20184;-90
2023/10/25 04:27:02;;;;;;;11.90;1.20;;;;;;;;;;4973986;28;20192;-89
2023/10/25 04:29:27;;;;;;;0.90;0.90;;;;;;;;;;4973796;28;20313;-88
2023/10/25 04:31:52;;;;;;;1.27;1.17;;;;;;;;;;4973538;28;20234;-88
2023/10/25 04:34:18;;;;;;;1.67;1.10;;;;;;;;;;4973403;28;20178;-89
2023/10/25 04:36:43;;;;;;;0.70;0.70;;;;;;;;;;4956289;28;20178;-88
2023/10/25 04:39:09;;;;;;;2.93;0.90;;;;;;;;;;4973792;28;20218;-88
2023/10/25 04:41:35;;;;;;;1.07;0.80;;;;;;;;;;4973482;28;20323;-88
2023/10/25 04:44:00;;;;;;;0.80;0.80;;;;;;;;;;4973587;28;20265;-88
2023/10/25 04:46:26;;;;;;;20.93;1.03;;;;;;;;;;4956110;28;20200;-88
2023/10/25 04:48:51;;;;;;;1.87;1.00;;;;;;;;;;4956046;28;20216;-88
2023/10/25 04:51:16;;;;;;;1.07;0.97;;;;;;;;;;4973699;28;20205;-88
2023/10/25 04:53:43;;;;;;;2.10;0.93;;;;;;;;;;4973187;28;20284;-88
2023/10/25 04:56:08;;;;;;;0.70;0.70;;;;;;;;;;4956209;28;20182;-88
2023/10/25 04:58:33;;;;;;;1.23;1.13;;;;;;;;;;4973457;28;20244;-88
2023/10/25 05:00:58;;;;;;;1.17;1.17;;;;;;;;;;4956074;28;20185;-89
2023/10/25 05:03:24;;;;;;;0.97;0.70;;;;;;;;;;4955935;28;20204;-88
2023/10/25 05:05:49;;;;;;;0.60;0.60;;;;;;;;;;4956131;28;20178;-88
2023/10/25 05:08:14;;;;;;;0.50;0.50;;;;;;;;;;4956279;28;20656;-88
2023/10/25 05:10:40;;;;;;;1.97;1.53;;;;;;;;;;4955933;28;20198;-88
2023/10/25 05:13:05;;;;;;;1.40;1.30;;;;;;;;;;4955867;28;20648;-88
2023/10/25 05:15:31;;;;;;;3.10;2.00;;;;;;;;;;4955987;28;20682;-89
2023/10/25 05:17:56;;;;;;;0.87;0.87;;;;;;;;;;4973259;28;20177;-89
2023/10/25 05:20:22;;;;;;;3.03;1.10;;;;;;;;;;4973142;28;20281;-88
2023/10/25 05:22:51;;;;;;;1.60;1.03;;;;;;;;;;4947834;28;20177;-88
2023/10/25 05:25:16;;;;;;;1.17;1.17;;;;;;;;;;4955678;28;20681;-88
2023/10/25 05:27:41;;;;;;;1.27;1.17;;;;;;;;;;4973137;28;20193;-89
2023/10/25 05:30:12;;;;;;;0.80;0.80;;;;;;;;;;4973157;28;20205;-88
2023/10/25 05:32:37;;;;;;;0.83;0.70;;;;;;;;;;4955934;28;20174;-87
2023/10/25 05:35:04;;;;;;;0.43;0.43;;;;;;;;;;4955744;28;20177;-87
2023/10/25 05:37:30;;;;;;;0.13;0.13;;;;;;;;;;4955956;28;20241;-88
2023/10/25 05:39:56;;;;;;;0.00;0.00;;;;;;;;;;4955708;28;20205;-88
2023/10/25 05:42:21;;;;;;;1.33;1.33;;;;;;;;;;4956145;28;20185;-88
2023/10/25 05:44:47;;;;;;;0.87;0.87;;;;;;;;;;4955347;28;20247;-88
2023/10/25 05:47:13;;;;;;;0.00;0.00;;;;;;;;;;4976141;28;20264;-89
2023/10/25 05:49:41;;;;;;;0.00;0.00;;;;;;;;;;5018154;22;20228;-87
2023/10/25 05:52:07;;;;;;;0.00;0.00;;;;;;;;;;5008877;28;20247;-87
2023/10/25 05:54:34;;;;;;;5.27;5.07;;;;;;;;;;5005637;28;20181;-87
2023/10/25 05:56:59;;;;;;;0.00;0.00;;;;;;;;;;5005895;28;20187;-87
2023/10/25 05:59:24;;;;;;;0.00;0.00;;;;;;;;;;5017108;28;20205;-87
2023/10/25 06:01:51;;;;;;;0.00;0.00;;;;;;;;;;4985870;28;20647;-87
2023/10/25 06:04:17;;;;;;;0.53;0.30;;;;;;;;;;5002455;28;20181;-88
2023/10/25 06:06:43;;;;;;;0.00;0.00;;;;;;;;;;5003426;28;20188;-87
2023/10/25 06:09:08;;;;;;;0.00;0.00;;;;;;;;;;5003188;28;20613;-87
2023/10/25 06:11:49;;;;;;;0.00;0.00;;;;;;;;;;4985118;28;20219;-86
2023/10/25 06:14:15;;;;;;;0.00;0.00;;;;;;;;;;4985326;28;20184;-88
2023/10/25 06:16:40;;;;;;;0.20;0.20;;;;;;;;;;4984382;28;20190;-86
2023/10/25 06:19:05;;;;;;;0.03;0.03;;;;;;;;;;4981789;28;20209;-86
2023/10/25 06:21:30;;;;;;;0.53;0.53;;;;;;;;;;4999782;28;20188;-86
2023/10/25 06:23:56;;;;;;;0.00;0.00;;;;;;;;;;4985405;28;20185;-86
2023/10/25 06:26:21;;;;;;;1.40;1.33;;;;;;;;;;4985097;28;20563;-86
2023/10/25 06:28:46;;;;;;;2.30;1.47;;;;;;;;;;5002380;28;20567;-86
2023/10/25 06:31:12;;;;;;;2.87;2.10;;;;;;;;;;4984758;28;20641;-86
2023/10/25 06:33:37;;;;;;;0.63;0.63;;;;;;;;;;4984084;28;20723;-87
2023/10/25 06:36:03;;;;;;;0.00;0.00;;;;;;;;;;4984688;28;20181;-86
2023/10/25 06:38:28;;;;;;;0.77;0.77;;;;;;;;;;4983129;28;20177;-86
2023/10/25 06:40:53;;;;;;;1.97;1.07;;;;;;;;;;4982747;28;20201;-87
2023/10/25 06:43:19;;;;;;;3.50;0.17;;;;;;;;;;4983110;28;20264;-85
2023/10/25 06:45:47;;;;;;;0.67;0.67;;;;;;;;;;4984466;28;20192;-86
2023/10/25 06:48:13;;;;;;;1.27;1.17;;;;;;;;;;5001219;28;20181;-85
2023/10/25 06:50:38;;;;;;;0.70;0.70;;;;;;;;;;4983554;28;20274;-87
2023/10/25 06:53:03;;;;;;;0.73;0.73;;;;;;;;;;4984313;28;20189;-85
2023/10/25 06:55:29;;;;;;;0.97;0.90;;;;;;;;;;4983674;28;20177;-86
2023/10/25 06:57:54;;;;;;;2.27;2.07;;;;;;;;;;5001378;28;20647;-86
2023/10/25 07:00:19;;;;;;;2.67;2.47;;;;;;;;;;5001100;28;20241;-86
2023/10/25 07:02:52;;;;;;;0.23;0.23;;;;;;;;;;4984320;28;20220;-86
2023/10/25 07:05:18;;;;;;;0.00;0.00;;;;;;;;;;5001102;28;20292;-86
2023/10/25 07:07:45;;;;;;;0.00;0.00;;;;;;;;;;4976721;28;20181;-86
2023/10/25 07:10:10;;;;;;;1.00;1.00;;;;;;;;;;4987701;28;20220;-86
2023/10/25 07:12:36;;;;;;;0.77;0.47;;;;;;;;;;4993816;28;20181;-86
2023/10/25 07:15:01;;;;;;;0.10;0.10;;;;;;;;;;4979558;28;20588;-86
2023/10/25 07:17:29;;;;;;;0.73;0.73;;;;;;;;;;4981752;28;20173;-87
2023/10/25 07:19:54;;;;;;;1.07;0.97;;;;;;;;;;4981783;28;20213;-86
2023/10/25 07:22:19;;;;;;;0.00;0.00;;;;;;;;;;4999051;28;20638;-86
2023/10/25 07:24:45;;;;;;;0.30;0.30;;;;;;;;;;4981820;28;20185;-87
2023/10/25 07:27:10;;;;;;;0.27;0.27;;;;;;;;;;4982343;28;20185;-85
2023/10/25 07:29:36;;;;;;;0.53;0.53;;;;;;;;;;4997877;28;20201;-86
2023/10/25 07:32:02;;;;;;;0.07;0.07;;;;;;;;;;5001927;28;20177;-87
2023/10/25 07:34:27;;;;;;;1.47;1.33;;;;;;;;;;4986615;28;20170;-87
2023/10/25 07:37:00;;;;;;;0.43;0.30;;;;;;;;;;4988412;28;20177;-86
2023/10/25 07:39:25;;;;;;;1.97;1.30;;;;;;;;;;4984321;28;20200;-86
2023/10/25 07:41:50;;;;;;;2.20;1.37;;;;;;;;;;4984575;28;20241;-86
2023/10/25 07:44:16;;;;;;;1.20;1.20;;;;;;;;;;4984804;28;20184;-87
2023/10/25 07:46:41;;;;;;;0.37;0.37;;;;;;;;;;4987201;28;20173;-86
2023/10/25 07:49:07;;;;;;;0.00;0.00;;;;;;;;;;4983541;28;20638;-87
2023/10/25 07:51:32;;;;;;;2.70;2.50;;;;;;;;;;4983414;28;20212;-86
2023/10/25 07:53:57;;;;;;;2.23;2.13;;;;;;;;;;4983133;28;20169;-86
2023/10/25 07:56:25;;;;;;;0.00;0.00;;;;;;;;;;5000706;28;20173;-87
2023/10/25 07:58:50;;;;;;;0.63;0.63;;;;;;;;;;4991188;28;20192;-87
2023/10/25 08:01:15;;;;;;;0.30;0.30;;;;;;;;;;4983989;28;20671;-86
2023/10/25 08:03:40;;;;;;;0.00;0.00;;;;;;;;;;4982727;28;20192;-87
2023/10/25 08:06:06;;;;;;;1.57;1.50;;;;;;;;;;4982675;28;20264;-86
2023/10/25 08:08:31;;;;;;;1.03;1.03;;;;;;;;;;5013363;28;20173;-87
2023/10/25 08:11:04;;;;;;;0.00;0.00;;;;;;;;;;4999868;28;20574;-88
2023/10/25 08:13:30;;;;;;;0.43;0.43;;;;;;;;;;4999007;28;20177;-87
2023/10/25 08:15:55;;;;;;;0.00;0.00;;;;;;;;;;5000205;28;20613;-87
2023/10/25 08:18:20;;;;;;;1.10;1.03;;;;;;;;;;4998429;28;20189;-86
2023/10/25 08:20:46;;;;;;;0.77;0.77;;;;;;;;;;4997965;28;20267;-87
2023/10/25 08:23:11;;;;;;;0.77;0.77;;;;;;;;;;4982110;28;20598;-85
2023/10/25 08:25:36;;;;;;;0.50;0.50;;;;;;;;;;4979809;28;20181;-86
2023/10/25 08:28:01;;;;;;;0.73;0.73;;;;;;;;;;4978802;28;20221;-87
2023/10/25 08:30:27;;;;;;;0.07;0.07;;;;;;;;;;4996771;28;20204;-87
2023/10/25 08:32:52;;;;;;;2.07;1.97;;;;;;;;;;4979470;28;20181;-87
2023/10/25 08:35:18;;;;;;;1.70;1.60;;;;;;;;;;4978809;28;20188;-87
2023/10/25 08:37:43;;;;;;;1.67;1.57;;;;;;;;;;4978741;28;20177;-86
2023/10/25 08:40:09;;;;;;;0.33;0.33;;;;;;;;;;4994340;28;20197;-86
2023/10/25 08:42:35;;;;;;;0.00;0.00;;;;;;;;;;4979395;28;20248;-87
2023/10/25 08:45:00;;;;;;;0.40;0.40;;;;;;;;;;4995788;28;20673;-87
2023/10/25 08:47:25;;;;;;;1.50;1.40;;;;;;;;;;4996338;28;20212;-86
2023/10/25 08:49:50;;;;;;;0.07;0.07;;;;;;;;;;4995427;28;20208;-86
2023/10/25 08:52:17;;;;;;;1.97;1.87;;;;;;;;;;4978001;28;20230;-86
2023/10/25 08:54:43;;;;;;;0.00;0.00;;;;;;;;;;4978408;28;20224;-86
2023/10/25 08:57:08;;;;;;;6.30;1.53;;;;;;;;;;4977336;28;20571;-86
2023/10/25 08:59:43;;;;;;;2.30;1.20;;;;;;;;;;4994005;28;20189;-85
2023/10/25 09:02:10;;;;;;;0.37;0.37;;;;;;;;;;4976810;28;20670;-86
2023/10/25 09:04:35;;;;;;;0.20;0.20;;;;;;;;;;4976158;28;20181;-86
2023/10/25 09:07:00;;;;;;;0.00;0.00;;;;;;;;;;4977872;28;20280;-86
2023/10/25 09:09:37;;;;;;;3.70;1.30;;;;;;;;;;4977598;28;20195;-86
2023/10/25 09:12:03;;;;;;;1.30;1.30;;;;;;;;;;4978999;28;20181;-86
2023/10/25 09:14:44;;;;;;;0.00;0.00;;;;;;;;;;4980040;28;20173;-87
2023/10/25 09:17:10;;;;;;;1.43;1.33;;;;;;;;;;4980305;28;20181;-86
2023/10/25 09:19:35;;;;;;;0.67;0.67;;;;;;;;;;4996806;28;20239;-87
2023/10/25 09:22:18;;;;;;;2.33;2.13;;;;;;;;;;4997039;28;20161;-86
2023/10/25 09:24:49;;;;;;;0.00;0.00;;;;;;;;;;4979953;28;20189;-86
2023/10/25 09:27:14;;;;;;;2.63;2.43;;;;;;;;;;4978342;28;20240;-87
2023/10/25 09:29:39;;;;;;;3.73;3.43;;;;;;;;;;4978585;28;20197;-87
2023/10/25 09:32:06;;;;;;;0.47;0.40;;;;;;;;;;4979147;28;20249;-86
2023/10/25 09:34:31;;;;;;;1.60;1.50;;;;;;;;;;4981756;28;20187;-86
2023/10/25 09:36:57;;;;;;;0.73;0.73;;;;;;;;;;4985565;28;20244;-86
2023/10/25 09:39:22;;;;;;;1.97;1.83;;;;;;;;;;4970341;28;20225;-86
2023/10/25 09:41:50;;;;;;;0.53;0.53;;;;;;;;;;4985532;28;20377;-86
2023/10/25 09:44:17;;;;;;;2.30;1.87;;;;;;;;;;4979795;28;20260;-86
2023/10/25 09:46:44;;;;;;;2.97;1.03;;;;;;;;;;4984105;28;20192;-86
2023/10/25 09:49:13;;;;;;;4.37;3.07;;;;;;;;;;4981297;28;20220;-86
2023/10/25 09:52:00;;;;;;;1.40;1.30;;;;;;;;;;4982920;28;20223;-87
2023/10/25 09:54:30;;;;;;;2.60;2.40;;;;;;;;;;4983455;28;20232;-88
2023/10/25 09:56:56;;;;;;;2.17;1.97;;;;;;;;;;4984038;28;20188;-87
2023/10/25 09:59:21;;;;;;;4.67;1.50;;;;;;;;;;4982888;28;20197;-86
2023/10/25 10:01:47;;;;;;;2.40;2.20;;;;;;;;;;5001331;28;20263;-86
2023/10/25 10:04:32;;;;;;;8.70;0.90;;;;;;;;;;4984005;28;20181;-86
2023/10/25 10:07:16;;;;;;;0.57;0.53;;;;;;;;;;4982506;28;20268;-87
2023/10/25 10:10:02;;;;;;;0.17;0.17;;;;;;;;;;4980736;28;20201;-87
2023/10/25 10:12:27;;;;;;;13.13;1.70;;;;;;;;;;4967642;28;20659;-86
2023/10/25 10:14:52;;;;;;;6.17;2.10;;;;;;;;;;4980506;28;20200;-86
2023/10/25 10:17:17;;;;;;;0.00;0.00;;;;;;;;;;4981424;28;20640;-87
2023/10/25 10:19:44;;;;;;;0.00;0.00;;;;;;;;;;4978940;28;20193;-86
2023/10/25 10:22:11;;;;;;;0.00;0.00;;;;;;;;;;5003555;28;20558;-87
2023/10/25 10:24:40;;;;;;;0.97;0.63;;;;;;;;;;4988508;28;20188;-87
2023/10/25 10:27:05;;;;;;;0.53;0.53;;;;;;;;;;4981386;28;20174;-86
2023/10/25 10:29:30;;;;;;;0.30;0.30;;;;;;;;;;4980572;28;20622;-86
2023/10/25 10:31:56;;;;;;;0.90;0.90;;;;;;;;;;4977755;28;20217;-86
2023/10/25 10:34:36;;;;;;;6.43;1.03;;;;;;;;;;4980045;28;20185;-86
2023/10/25 10:37:05;;;;;;;0.60;0.60;;;;;;;;;;4980031;28;20621;-86
2023/10/25 10:39:30;;;;;;;0.83;0.30;;;;;;;;;;4997211;28;20724;-88
2023/10/25 10:42:00;;;;;;;1.37;0.67;;;;;;;;;;4979924;28;20293;-86
2023/10/25 10:44:26;;;;;;;1.20;1.13;;;;;;;;;;4996718;28;20208;-87
2023/10/25 10:46:55;;;;;;;0.43;0.43;;;;;;;;;;4979890;28;20197;-87
2023/10/25 10:49:22;;;;;;;0.00;0.00;;;;;;;;;;4995811;28;20237;-87
2023/10/25 10:51:47;;;;;;;0.30;0.30;;;;;;;;;;4979509;28;20559;-87
2023/10/25 10:54:12;;;;;;;0.00;0.00;;;;;;;;;;4996746;28;20233;-87
2023/10/25 10:56:38;;;;;;;0.43;0.43;;;;;;;;;;4997055;28;20165;-87
2023/10/25 10:59:03;;;;;;;0.00;0.00;;;;;;;;;;4978899;28;20197;-87
2023/10/25 11:01:29;;;;;;;5.67;1.50;;;;;;;;;;4996518;28;20165;-87
2023/10/25 11:03:56;;;;;;;0.00;0.00;;;;;;;;;;4978628;28;20185;-87
2023/10/25 11:06:24;;;;;;;0.80;0.50;;;;;;;;;;4997096;28;20177;-86
2023/10/25 11:08:49;;;;;;;0.20;0.20;;;;;;;;;;4979436;28;20239;-86
2023/10/25 11:11:14;;;;;;;0.00;0.00;;;;;;;;;;4979135;28;20205;-87
2023/10/25 11:13:40;;;;;;;0.00;0.00;;;;;;;;;;4978671;28;20184;-86
2023/10/25 11:16:12;;;;;;;0.10;0.10;;;;;;;;;;4978849;28;20260;-87
2023/10/25 11:18:37;;;;;;;0.07;0.07;;;;;;;;;;4978818;28;20192;-87
2023/10/25 11:21:02;;;;;;;0.57;0.57;;;;;;;;;;4996317;28;20193;-87
2023/10/25 11:23:28;;;;;;;0.80;0.80;;;;;;;;;;4979170;28;20251;-87
2023/10/25 11:25:53;;;;;;;0.43;0.27;;;;;;;;;;4979809;28;20177;-87
2023/10/25 11:28:19;;;;;;;0.40;0.33;;;;;;;;;;4979476;28;20181;-87
2023/10/25 11:30:44;;;;;;;0.00;0.00;;;;;;;;;;4979261;28;20715;-87
2023/10/25 11:33:10;;;;;;;0.07;0.07;;;;;;;;;;4978670;28;20173;-87
2023/10/25 11:35:37;;;;;;;0.00;0.00;;;;;;;;;;4979078;28;20211;-87
2023/10/25 11:38:04;;;;;;;0.00;0.00;;;;;;;;;;4978643;28;20181;-87
2023/10/25 11:40:43;;;;;;;0.27;0.27;;;;;;;;;;4978929;28;20638;-87
2023/10/25 11:43:09;;;;;;;0.50;0.50;;;;;;;;;;4977958;28;20648;-87
2023/10/25 11:45:35;;;;;;;0.33;0.33;;;;;;;;;;4978185;28;20255;-87
2023/10/25 11:48:01;;;;;;;0.00;0.00;;;;;;;;;;4973498;28;20189;-87
2023/10/25 11:50:27;;;;;;;0.00;0.00;;;;;;;;;;5001147;23;20252;-88
2023/10/25 11:52:52;;;;;;;0.00;0.00;;;;;;;;;;4995837;28;20224;-88
2023/10/25 11:55:17;;;;;;;1.10;0.70;;;;;;;;;;5013026;28;20256;-89
2023/10/25 11:57:42;;;;;;;0.50;0.30;;;;;;;;;;4995921;28;20191;-88
2023/10/25 12:00:08;;;;;;;0.00;0.00;;;;;;;;;;4995882;28;20187;-88
2023/10/25 12:02:34;;;;;;;0.00;0.00;;;;;;;;;;5013346;28;20180;-88
2023/10/25 12:05:01;;;;;;;0.00;0.00;;;;;;;;;;4995494;28;20183;-88
2023/10/25 12:07:27;;;;;;;0.00;0.00;;;;;;;;;;4995630;28;20180;-88
2023/10/25 12:09:52;;;;;;;0.00;0.00;;;;;;;;;;5013121;28;20424;-88
2023/10/25 12:12:18;;;;;;;0.63;0.63;;;;;;;;;;5011950;28;20172;-88
2023/10/25 12:14:43;;;;;;;0.27;0.27;;;;;;;;;;4994724;28;20192;-89
2023/10/25 12:17:08;;;;;;;0.00;0.00;;;;;;;;;;4995503;28;20165;-88
2023/10/25 12:19:36;;;;;;;5.40;0.70;;;;;;;;;;4995349;28;20169;-89
2023/10/25 12:22:05;;;;;;;1.10;0.57;;;;;;;;;;5012963;28;20199;-89
2023/10/25 12:24:30;;;;;;;0.00;0.00;;;;;;;;;;5012724;28;20255;-88
2023/10/25 12:26:55;;;;;;;0.10;0.10;;;;;;;;;;5013173;28;20606;-89
2023/10/25 12:29:25;;;;;;;0.00;0.00;;;;;;;;;;4994423;28;20164;-89
2023/10/25 12:31:50;;;;;;;0.00;0.00;;;;;;;;;;4994774;28;20192;-89
2023/10/25 12:34:15;;;;;;;0.77;0.77;;;;;;;;;;4995049;28;20222;-89
2023/10/25 12:36:40;;;;;;;0.00;0.00;;;;;;;;;;4995497;28;20172;-88
2023/10/25 12:39:05;;;;;;;0.30;0.17;;;;;;;;;;5012777;28;20631;-88
2023/10/25 12:41:32;;;;;;;0.00;0.00;;;;;;;;;;4995101;28;20203;-89
2023/10/25 12:43:58;;;;;;;0.00;0.00;;;;;;;;;;5012495;28;20709;-88
2023/10/25 12:46:23;;;;;;;0.00;0.00;;;;;;;;;;4995007;28;20176;-90
2023/10/25 12:48:48;;;;;;;0.00;0.00;;;;;;;;;;4987572;28;20203;-88
2023/10/25 12:51:13;;;;;;;0.00;0.00;;;;;;;;;;5012407;28;20224;-88
2023/10/25 12:53:38;;;;;;;6.97;1.53;;;;;;;;;;4994662;28;20205;-89
2023/10/25 12:56:03;;;;;;;0.00;0.00;;;;;;;;;;4993923;28;20168;-89
2023/10/25 12:58:29;;;;;;;0.90;0.80;;;;;;;;;;4988714;28;20659;-89
2023/10/25 13:00:54;;;;;;;0.40;0.37;;;;;;;;;;5009279;28;20200;-89
2023/10/25 13:03:20;;;;;;;0.10;0.00;;;;;;;;;;5011963;28;20547;-90
2023/10/25 13:05:45;;;;;;;0.00;0.00;;;;;;;;;;4994504;28;20180;-89
2023/10/25 13:08:10;;;;;;;1.70;1.60;;;;;;;;;;4994587;28;20196;-90
2023/10/25 13:10:35;;;;;;;0.00;0.00;;;;;;;;;;5011888;28;20213;-89
2023/10/25 13:13:00;;;;;;;0.20;0.20;;;;;;;;;;4994493;28;20227;-89
2023/10/25 13:15:26;;;;;;;0.07;0.07;;;;;;;;;;5012055;28;20214;-88
2023/10/25 13:17:51;;;;;;;0.30;0.30;;;;;;;;;;4994485;28;20539;-89
2023/10/25 13:20:17;;;;;;;0.00;0.00;;;;;;;;;;4994356;28;20287;-89
2023/10/25 13:22:43;;;;;;;1.07;0.40;;;;;;;;;;5012147;28;20556;-88
2023/10/25 13:25:08;;;;;;;0.27;0.27;;;;;;;;;;4994580;28;20215;-89
2023/10/25 13:27:33;;;;;;;0.00;0.00;;;;;;;;;;4994772;28;20185;-88
2023/10/25 13:29:59;;;;;;;0.00;0.00;;;;;;;;;;5012090;28;20726;-88
2023/10/25 13:32:27;;;;;;;0.00;0.00;;;;;;;;;;4994598;28;20203;-88
2023/10/25 13:34:52;;;;;;;0.00;0.00;;;;;;;;;;4994362;28;20183;-89
2023/10/25 13:37:21;;;;;;;0.00;0.00;;;;;;;;;;4994535;28;20239;-90
2023/10/25 13:39:46;;;;;;;0.00;0.00;;;;;;;;;;4994426;28;20180;-88
2023/10/25 13:42:11;;;;;;;0.00;0.00;;;;;;;;;;5011985;28;20198;-88
2023/10/25 13:44:37;;;;;;;0.00;0.00;;;;;;;;;;4994267;28;20172;-89
2023/10/25 13:47:02;;;;;;;0.00;0.00;;;;;;;;;;4994402;28;20259;-89
2023/10/25 13:49:28;;;;;;;0.00;0.00;;;;;;;;;;5012060;28;20167;-89
2023/10/25 13:51:56;;;;;;;0.00;0.00;;;;;;;;;;4994346;28;20232;-89
2023/10/25 13:54:22;;;;;;;0.00;0.00;;;;;;;;;;4994377;28;20177;-89
2023/10/25 13:56:47;;;;;;;0.00;0.00;;;;;;;;;;4994410;28;20172;-89
2023/10/25 13:59:12;;;;;;;0.00;0.00;;;;;;;;;;4994523;28;20264;-89
2023/10/25 14:01:39;;;;;;;0.10;0.10;;;;;;;;;;5011929;28;20192;-89
2023/10/25 14:04:05;;;;;;;0.10;0.10;;;;;;;;;;5011701;28;20176;-89
2023/10/25 14:06:30;;;;;;;0.00;0.00;;;;;;;;;;5012288;28;20184;-88
2023/10/25 14:08:55;;;;;;;0.00;0.00;;;;;;;;;;4998311;28;20180;-89
2023/10/25 14:11:20;;;;;;;0.00;0.00;;;;;;;;;;4998090;28;20216;-88
2023/10/25 14:13:46;;;;;;;0.00;0.00;;;;;;;;;;5015540;28;20647;-89
2023/10/25 14:16:11;;;;;;;0.00;0.00;;;;;;;;;;5015573;28;20247;-89
2023/10/25 14:18:37;;;;;;;0.00;0.00;;;;;;;;;;4998130;28;20180;-86
2023/10/25 14:21:02;;;;;;;0.00;0.00;;;;;;;;;;4998023;28;20207;-88
2023/10/25 14:23:28;;;;;;;0.00;0.00;;;;;;;;;;4997615;28;20207;-89
2023/10/25 14:25:53;;;;;;;0.00;0.00;;;;;;;;;;5015719;28;20169;-89
2023/10/25 14:28:18;;;;;;;0.30;0.00;;;;;;;;;;4998126;28;20658;-90
2023/10/25 14:30:43;;;;;;;0.00;0.00;;;;;;;;;;5015258;28;20296;-88
2023/10/25 14:33:09;;;;;;;2.33;0.63;;;;;;;;;;4997606;28;20203;-90
2023/10/25 14:35:35;;;;;;;1.17;1.17;;;;;;;;;;4997805;28;20203;-89